createdAt,value
2023-02-07T00:00:17.580Z,2.30
2023-02-07T00:02:44.962Z,1.88
2023-02-07T00:05:11.826Z,2.03
2023-02-07T00:07:38.450Z,1.80
2023-02-07T00:10:06.100Z,2.08
2023-02-07T00:12:32.490Z,1.70
2023-02-07T00:14:59.438Z,2.08
2023-02-07T00:17:25.832Z,1.92
2023-02-07T00:19:52.258Z,1.92
2023-02-07T00:22:18.647Z,1.77
2023-02-07T00:24:45.174Z,1.95
2023-02-07T00:27:11.595Z,1.90
2023-02-07T00:29:37.961Z,1.90
2023-02-07T00:32:04.671Z,1.70
2023-02-07T00:34:31.651Z,1.80
2023-02-07T00:36:58.104Z,2.00
2023-02-07T00:39:24.465Z,1.80
2023-02-07T00:41:50.868Z,1.58
2023-02-07T00:44:17.240Z,2.15
2023-02-07T00:46:44.905Z,1.80
2023-02-07T00:49:11.773Z,2.08
2023-02-07T00:51:38.228Z,2.05
2023-02-07T00:54:04.955Z,1.80
2023-02-07T00:56:32.146Z,1.92
2023-02-07T00:58:59.208Z,1.90
2023-02-07T01:01:27.366Z,1.85
2023-02-07T01:03:54.429Z,1.92
2023-02-07T01:06:21.252Z,2.30
2023-02-07T01:08:48.255Z,1.88
2023-02-07T01:11:16.529Z,1.77
2023-02-07T01:13:44.109Z,2.00
2023-02-07T01:16:34.342Z,1.77
2023-02-07T01:19:03.743Z,1.52
2023-02-07T01:21:30.266Z,1.88
2023-02-07T01:23:56.925Z,1.80
2023-02-07T01:26:24.888Z,1.70
2023-02-07T01:28:51.309Z,2.00
2023-02-07T01:31:17.806Z,2.00
2023-02-07T01:33:44.216Z,2.20
2023-02-07T01:36:13.389Z,1.95
2023-02-07T01:38:40.222Z,1.92
2023-02-07T01:41:07.061Z,2.30
2023-02-07T01:43:33.498Z,2.15
2023-02-07T01:45:59.907Z,1.98
2023-02-07T01:48:35.599Z,2.33
2023-02-07T01:51:04.981Z,2.20
2023-02-07T01:53:33.526Z,2.40
2023-02-07T01:56:03.299Z,2.42
2023-02-07T01:58:29.714Z,2.22
2023-02-07T02:00:56.081Z,2.33
2023-02-07T02:03:22.526Z,2.75
2023-02-07T02:05:50.066Z,1.95
2023-02-07T02:08:16.414Z,2.35
2023-02-07T02:11:21.598Z,2.22
2023-02-07T02:13:53.549Z,2.50
2023-02-07T02:16:44.967Z,2.05
2023-02-07T02:19:27.007Z,2.60
2023-02-07T02:22:12.021Z,2.10
2023-02-07T02:24:53.238Z,2.53
2023-02-07T02:27:38.290Z,2.88
2023-02-07T02:30:34.571Z,2.60
2023-02-07T02:33:09.888Z,2.70
2023-02-07T02:36:01.229Z,2.97
2023-02-07T02:38:54.087Z,2.67
2023-02-07T02:41:39.797Z,2.60
2023-02-07T02:44:13.501Z,2.83
2023-02-07T02:46:41.606Z,3.00
2023-02-07T02:49:10.538Z,3.20
2023-02-07T02:51:37.333Z,3.45
2023-02-07T02:54:03.776Z,3.83
2023-02-07T02:56:51.940Z,3.25
2023-02-07T02:59:40.604Z,3.95
2023-02-07T03:02:22.412Z,3.67
2023-02-07T03:05:04.071Z,3.45
2023-02-07T03:07:53.378Z,3.70
2023-02-07T03:10:31.731Z,3.67
2023-02-07T03:13:16.655Z,4.00
2023-02-07T03:16:13.591Z,4.18
2023-02-07T03:19:01.247Z,3.92
2023-02-07T03:21:31.502Z,3.88
2023-02-07T03:24:01.286Z,3.67
2023-02-07T03:26:28.354Z,3.60
2023-02-07T03:28:56.709Z,4.03
2023-02-07T03:31:24.448Z,3.78
2023-02-07T03:33:54.769Z,4.22
2023-02-07T03:37:04.083Z,3.38
2023-02-07T03:39:30.496Z,4.50
2023-02-07T03:41:59.884Z,3.90
2023-02-07T03:44:27.726Z,4.28
2023-02-07T03:46:54.622Z,4.00
2023-02-07T03:49:21.040Z,5.25
2023-02-07T03:51:48.032Z,4.40
2023-02-07T03:54:14.395Z,4.45
2023-02-07T03:56:40.711Z,5.15
2023-02-07T03:59:08.236Z,5.03
2023-02-07T04:01:40.630Z,5.38
2023-02-07T04:04:07.081Z,5.32
2023-02-07T04:06:33.500Z,5.53
2023-02-07T04:08:59.900Z,4.88
2023-02-07T04:11:26.277Z,5.20
2023-02-07T04:13:52.618Z,5.35
2023-02-07T04:16:19.044Z,5.47
2023-02-07T04:18:45.435Z,6.05
2023-02-07T04:21:11.828Z,5.20
2023-02-07T04:23:38.378Z,5.20
2023-02-07T04:26:04.864Z,6.00
2023-02-07T04:28:31.436Z,5.63
2023-02-07T04:30:57.822Z,5.82
2023-02-07T04:33:24.239Z,6.22
2023-02-07T04:36:01.740Z,6.20
2023-02-07T04:38:29.201Z,5.65
2023-02-07T04:41:04.430Z,6.18
2023-02-07T04:43:32.264Z,6.53
2023-02-07T04:45:58.689Z,7.63
2023-02-07T04:48:25.246Z,6.35
2023-02-07T04:50:51.616Z,7.22
2023-02-07T04:53:17.993Z,6.55
2023-02-07T04:55:48.369Z,6.80
2023-02-07T04:58:14.847Z,8.05
2023-02-07T05:00:41.508Z,6.90
2023-02-07T05:03:07.844Z,6.97
2023-02-07T05:05:34.217Z,7.53
2023-02-07T05:08:00.557Z,7.07
2023-02-07T05:10:26.917Z,7.40
2023-02-07T05:12:53.292Z,7.00
2023-02-07T05:15:19.613Z,7.07
2023-02-07T05:17:46.214Z,7.47
2023-02-07T05:20:12.733Z,8.13
2023-02-07T05:22:39.125Z,8.02
2023-02-07T05:25:05.799Z,7.43
2023-02-07T05:27:32.166Z,7.65
2023-02-07T05:29:59.426Z,7.72
2023-02-07T05:32:44.417Z,7.88
2023-02-07T05:35:11.837Z,7.90
2023-02-07T05:37:38.221Z,7.57
2023-02-07T05:40:04.884Z,7.80
2023-02-07T05:42:31.439Z,8.10
2023-02-07T05:44:57.888Z,7.82
2023-02-07T05:47:24.326Z,8.30
2023-02-07T05:49:51.107Z,8.20
2023-02-07T05:52:17.601Z,8.05
2023-02-07T05:54:44.019Z,9.23
2023-02-07T05:57:10.353Z,8.48
2023-02-07T05:59:36.709Z,8.85
2023-02-07T06:02:03.044Z,8.07
2023-02-07T06:04:29.439Z,8.63
2023-02-07T06:06:55.769Z,9.35
2023-02-07T06:09:22.472Z,9.15
2023-02-07T06:11:48.956Z,9.50
2023-02-07T06:14:15.360Z,9.40
2023-02-07T06:16:41.780Z,9.25
2023-02-07T06:19:08.235Z,9.13
2023-02-07T06:21:45.785Z,10.75
2023-02-07T06:24:13.434Z,6.07
2023-02-07T06:26:39.783Z,10.57
2023-02-07T06:29:06.150Z,15.75
2023-02-07T06:31:32.581Z,21.70
2023-02-07T06:33:59.083Z,15.60
2023-02-07T06:36:25.401Z,12.15
2023-02-07T06:38:55.337Z,9.80
2023-02-07T06:41:22.460Z,9.27
2023-02-07T06:43:48.864Z,9.60
2023-02-07T06:46:15.416Z,9.80
2023-02-07T06:48:41.833Z,9.75
2023-02-07T06:51:08.186Z,9.60
2023-02-07T06:53:34.521Z,10.02
2023-02-07T06:56:00.958Z,9.95
2023-02-07T06:58:27.350Z,10.27
2023-02-07T07:00:53.725Z,10.60
2023-02-07T07:03:20.196Z,10.70
2023-02-07T07:05:46.691Z,11.02
2023-02-07T07:08:15.404Z,10.77
2023-02-07T07:10:41.812Z,11.27
2023-02-07T07:13:08.256Z,11.23
2023-02-07T07:15:34.660Z,9.90
2023-02-07T07:18:01.102Z,10.95
2023-02-07T07:20:27.556Z,10.60
2023-02-07T07:22:53.870Z,10.23
2023-02-07T07:25:20.386Z,11.18
2023-02-07T07:27:46.850Z,11.00
2023-02-07T07:30:13.664Z,12.02
2023-02-07T07:32:40.602Z,11.48
2023-02-07T07:35:07.614Z,11.70
2023-02-07T07:37:33.976Z,11.55
2023-02-07T07:40:00.360Z,12.45
2023-02-07T07:42:26.838Z,12.70
2023-02-07T07:44:53.203Z,12.55
2023-02-07T07:47:19.589Z,12.60
2023-02-07T07:49:46.900Z,12.38
2023-02-07T07:52:13.623Z,12.32
2023-02-07T07:54:40.073Z,15.32
2023-02-07T07:57:06.485Z,22.33
2023-02-07T07:59:32.921Z,16.92
2023-02-07T08:01:59.361Z,14.77
2023-02-07T08:04:25.837Z,11.70
2023-02-07T08:06:52.264Z,14.63
2023-02-07T08:09:18.632Z,13.25
2023-02-07T08:11:45.451Z,11.77
2023-02-07T08:14:11.810Z,12.32
2023-02-07T08:16:38.284Z,12.57
2023-02-07T08:19:04.684Z,13.32
2023-02-07T08:21:31.977Z,11.88
2023-02-07T08:23:58.430Z,12.00
2023-02-07T08:26:24.802Z,11.50
2023-02-07T08:28:52.354Z,11.77
2023-02-07T08:31:19.123Z,11.45
2023-02-07T08:33:45.608Z,11.98
2023-02-07T08:36:12.863Z,11.88
2023-02-07T08:38:39.335Z,12.07
2023-02-07T08:41:05.763Z,12.90
2023-02-07T08:43:32.199Z,12.07
2023-02-07T08:46:00.541Z,11.80
2023-02-07T08:48:27.053Z,11.55
2023-02-07T08:50:53.412Z,11.85
2023-02-07T08:53:19.748Z,11.25
2023-02-07T08:55:46.353Z,11.57
2023-02-07T08:58:12.720Z,11.65
2023-02-07T09:00:39.876Z,12.23
2023-02-07T09:03:06.373Z,10.95
2023-02-07T09:05:33.568Z,11.98
2023-02-07T09:08:00.912Z,11.63
2023-02-07T09:10:27.325Z,10.82
2023-02-07T09:12:53.718Z,11.23
2023-02-07T09:15:20.408Z,11.68
2023-02-07T09:17:46.845Z,12.23
2023-02-07T09:20:13.282Z,11.95
2023-02-07T09:22:58.366Z,11.13
2023-02-07T09:25:24.761Z,11.23
2023-02-07T09:27:51.360Z,12.82
2023-02-07T09:30:18.011Z,12.00
2023-02-07T09:32:44.551Z,11.75
2023-02-07T09:35:10.892Z,12.40
2023-02-07T09:37:48.793Z,12.10
2023-02-07T09:40:19.055Z,11.90
2023-02-07T09:42:52.256Z,12.18
2023-02-07T09:45:24.699Z,12.27
2023-02-07T09:47:53.945Z,10.50
2023-02-07T09:50:23.570Z,11.13
2023-02-07T09:52:59.906Z,11.80
2023-02-07T09:55:42.989Z,11.30
2023-02-07T09:58:14.096Z,11.40
2023-02-07T10:00:42.462Z,11.88
2023-02-07T10:03:23.154Z,11.35
2023-02-07T10:06:17.524Z,11.40
2023-02-07T10:08:47.424Z,11.75
2023-02-07T10:11:23.168Z,11.25
2023-02-07T10:13:58.521Z,11.05
2023-02-07T10:16:46.608Z,12.45
2023-02-07T10:19:44.514Z,10.63
2023-02-07T10:22:27.243Z,10.77
2023-02-07T10:25:18.202Z,10.57
2023-02-07T10:27:58.455Z,10.85
2023-02-07T10:30:27.899Z,10.60
2023-02-07T10:33:00.224Z,11.25
2023-02-07T10:35:36.390Z,10.82
2023-02-07T10:38:03.856Z,10.60
2023-02-07T10:40:42.708Z,11.13
2023-02-07T10:43:19.678Z,11.40
2023-02-07T10:45:49.851Z,11.43
2023-02-07T10:48:19.696Z,10.63
2023-02-07T10:50:46.340Z,11.55
2023-02-07T10:53:54.848Z,11.07
2023-02-07T10:56:27.667Z,11.27
2023-02-07T10:58:56.134Z,11.43
2023-02-07T11:01:25.728Z,10.43
2023-02-07T11:03:53.093Z,10.48
2023-02-07T11:06:29.424Z,9.98
2023-02-07T11:09:11.925Z,11.10
2023-02-07T11:11:40.587Z,11.82
2023-02-07T11:14:08.862Z,11.25
2023-02-07T11:16:35.451Z,10.77
2023-02-07T11:19:06.439Z,12.18
2023-02-07T11:21:39.859Z,10.45
2023-02-07T11:24:07.682Z,11.65
2023-02-07T11:26:35.780Z,10.45
2023-02-07T11:29:22.697Z,10.82
2023-02-07T11:31:49.957Z,10.27
2023-02-07T11:34:53.258Z,10.00
2023-02-07T11:37:23.785Z,10.23
2023-02-07T11:39:51.296Z,10.23
2023-02-07T11:42:20.112Z,10.00
2023-02-07T11:44:47.961Z,10.32
2023-02-07T11:47:18.618Z,9.88
2023-02-07T11:49:52.524Z,9.48
2023-02-07T11:52:19.178Z,9.60
2023-02-07T11:54:54.753Z,9.93
2023-02-07T11:57:22.487Z,10.05
2023-02-07T12:00:08.271Z,10.15
2023-02-07T12:02:35.525Z,9.43
2023-02-07T12:05:22.638Z,11.00
2023-02-07T12:07:53.530Z,9.90
2023-02-07T12:10:22.912Z,9.38
2023-02-07T12:13:00.389Z,10.32
2023-02-07T12:15:33.941Z,9.05
2023-02-07T12:18:07.669Z,10.93
2023-02-07T12:20:40.365Z,10.07
2023-02-07T12:23:41.764Z,9.93
2023-02-07T12:26:15.114Z,10.48
2023-02-07T12:29:12.173Z,9.00
2023-02-07T12:31:51.799Z,10.00
2023-02-07T12:34:50.780Z,9.95
2023-02-07T12:37:37.465Z,9.38
2023-02-07T12:40:11.083Z,9.57
2023-02-07T12:42:43.377Z,10.40
2023-02-07T12:45:16.996Z,9.85
2023-02-07T12:48:01.984Z,8.90
2023-02-07T12:50:37.260Z,9.73
2023-02-07T12:53:28.056Z,9.93
2023-02-07T12:56:09.631Z,9.30
2023-02-07T12:58:35.972Z,9.82
2023-02-07T13:01:28.206Z,8.82
2023-02-07T13:04:09.509Z,10.05
2023-02-07T13:07:06.520Z,9.32
2023-02-07T13:09:50.369Z,9.38
2023-02-07T13:12:26.109Z,8.88
2023-02-07T13:15:30.467Z,8.60
2023-02-07T13:18:13.355Z,9.63
2023-02-07T13:21:03.653Z,10.30
2023-02-07T13:23:32.090Z,8.50
2023-02-07T13:26:02.780Z,9.15
2023-02-07T13:28:38.712Z,9.75
2023-02-07T13:31:06.658Z,9.52
2023-02-07T13:33:38.060Z,9.30
2023-02-07T13:36:37.672Z,9.10
2023-02-07T13:39:19.991Z,9.35
2023-02-07T13:41:53.049Z,8.93
2023-02-07T13:44:36.554Z,8.88
2023-02-07T13:47:11.612Z,9.77
2023-02-07T13:50:13.888Z,9.10
2023-02-07T13:52:49.033Z,9.73
2023-02-07T13:55:39.910Z,9.10
2023-02-07T13:58:53.400Z,9.25
2023-02-07T14:01:32.322Z,9.40
2023-02-07T14:04:12.404Z,9.63
2023-02-07T14:06:40.816Z,9.63
2023-02-07T14:09:18.888Z,9.25
2023-02-07T14:11:50.395Z,8.35
2023-02-07T14:14:28.053Z,9.27
2023-02-07T14:17:03.207Z,8.05
2023-02-07T14:19:48.585Z,8.48
2023-02-07T14:22:42.083Z,8.98
2023-02-07T14:25:08.519Z,8.93
2023-02-07T14:27:42.911Z,9.10
2023-02-07T14:30:13.546Z,8.70
2023-02-07T14:32:46.062Z,8.77
2023-02-07T14:35:19.390Z,8.70
2023-02-07T14:37:56.471Z,8.80
2023-02-07T14:40:37.852Z,9.90
2023-02-07T14:43:17.247Z,9.05
2023-02-07T14:45:52.657Z,8.55
2023-02-07T14:48:31.263Z,9.18
2023-02-07T14:50:57.639Z,8.98
2023-02-07T14:53:24.190Z,8.60
2023-02-07T14:55:55.050Z,8.27
2023-02-07T14:58:42.827Z,7.95
2023-02-07T15:01:14.027Z,8.73
2023-02-07T15:03:40.451Z,8.02
2023-02-07T15:06:31.937Z,8.23
2023-02-07T15:09:00.474Z,8.43
2023-02-07T15:11:28.425Z,8.38
2023-02-07T15:13:57.798Z,8.18
2023-02-07T15:16:24.099Z,8.38
2023-02-07T15:18:57.916Z,8.05
2023-02-07T15:21:32.275Z,8.15
2023-02-07T15:24:04.385Z,8.85
2023-02-07T15:26:31.394Z,8.10
2023-02-07T15:29:05.534Z,7.30
2023-02-07T15:34:05.884Z,7.32
2023-02-07T15:36:35.186Z,8.48
2023-02-07T15:39:05.072Z,7.88
2023-02-07T15:41:31.697Z,7.22
2023-02-07T15:44:03.517Z,6.55
2023-02-07T15:46:51.637Z,6.97
2023-02-07T15:49:32.429Z,7.03
2023-02-07T15:52:12.245Z,7.07
2023-02-07T15:54:40.301Z,6.47
2023-02-07T15:57:12.423Z,7.32
2023-02-07T15:59:41.013Z,8.13
2023-02-07T16:02:19.676Z,8.00
2023-02-07T16:04:46.088Z,7.22
2023-02-07T16:07:13.385Z,7.03
2023-02-07T16:09:43.168Z,7.07
2023-02-07T16:12:45.675Z,7.15
2023-02-07T16:15:26.510Z,6.78
2023-02-07T16:17:53.106Z,7.13
2023-02-07T16:20:19.571Z,6.68
2023-02-07T16:22:46.559Z,6.88
2023-02-07T16:25:19.272Z,7.30
2023-02-07T16:27:47.571Z,6.78
2023-02-07T16:30:19.887Z,5.88
2023-02-07T16:32:46.557Z,6.15
2023-02-07T16:35:18.137Z,6.47
2023-02-07T16:37:44.659Z,6.47
2023-02-07T16:40:12.494Z,6.53
2023-02-07T16:42:41.104Z,6.72
2023-02-07T16:45:15.625Z,6.40
2023-02-07T16:47:42.012Z,5.65
2023-02-07T16:50:17.190Z,6.88
2023-02-07T16:52:43.599Z,6.50
2023-02-07T16:55:10.093Z,6.30
2023-02-07T16:57:38.104Z,5.78
2023-02-07T17:00:06.462Z,6.32
2023-02-07T17:02:32.912Z,5.97
2023-02-07T17:04:59.241Z,6.50
2023-02-07T17:07:25.639Z,6.35
2023-02-07T17:09:52.130Z,6.30
2023-02-07T17:12:18.492Z,6.07
2023-02-07T17:14:44.973Z,5.82
2023-02-07T17:17:12.324Z,5.78
2023-02-07T17:19:38.671Z,5.88
2023-02-07T17:22:05.057Z,5.85
2023-02-07T17:24:31.766Z,6.43
2023-02-07T17:26:58.391Z,5.10
2023-02-07T17:29:25.055Z,5.40
2023-02-07T17:31:51.472Z,5.40
2023-02-07T17:34:17.824Z,5.28
2023-02-07T17:36:47.433Z,5.07
2023-02-07T17:39:14.796Z,5.10
2023-02-07T17:41:41.192Z,4.80
2023-02-07T17:44:07.823Z,5.35
2023-02-07T17:46:34.250Z,5.57
2023-02-07T17:49:01.291Z,6.20
2023-02-07T17:51:28.694Z,5.95
2023-02-07T17:53:55.902Z,5.93
2023-02-07T17:56:29.882Z,5.72
2023-02-07T18:01:23.945Z,6.10
2023-02-07T18:03:52.239Z,6.32
2023-02-07T18:06:20.327Z,6.13
2023-02-07T18:08:46.885Z,6.28
2023-02-07T18:11:14.192Z,7.63
2023-02-07T18:13:45.970Z,6.45
2023-02-07T18:16:21.973Z,6.70
2023-02-07T18:18:49.850Z,5.85
2023-02-07T18:21:16.572Z,6.15
2023-02-07T18:23:43.125Z,5.63
2023-02-07T18:26:11.494Z,5.72
2023-02-07T18:28:38.218Z,5.97
2023-02-07T18:31:11.886Z,5.10
2023-02-07T18:33:38.352Z,8.80
2023-02-07T18:36:05.224Z,7.18
2023-02-07T18:38:31.710Z,5.15
2023-02-07T18:40:58.280Z,5.32
2023-02-07T18:43:24.702Z,5.47
2023-02-07T18:45:51.150Z,5.53
2023-02-07T18:48:17.493Z,4.90
2023-02-07T18:50:44.607Z,4.95
2023-02-07T18:53:12.320Z,5.00
2023-02-07T18:55:38.706Z,5.80
2023-02-07T18:58:05.252Z,4.82
2023-02-07T19:00:31.625Z,5.10
2023-02-07T19:02:58.048Z,4.95
2023-02-07T19:05:24.423Z,4.90
2023-02-07T19:07:50.817Z,4.68
2023-02-07T19:10:17.246Z,5.50
2023-02-07T19:12:43.653Z,7.90
2023-02-07T19:15:10.250Z,7.15
2023-02-07T19:17:36.699Z,6.03
2023-02-07T19:20:03.331Z,5.78
2023-02-07T19:22:35.819Z,5.50
2023-02-07T19:25:03.565Z,6.55
2023-02-07T19:27:29.921Z,6.20
2023-02-07T19:29:56.329Z,6.72
2023-02-07T19:32:22.682Z,7.05
2023-02-07T19:34:49.986Z,7.35
2023-02-07T19:37:18.153Z,7.03
2023-02-07T19:39:46.082Z,6.45
2023-02-07T19:42:12.505Z,7.07
2023-02-07T19:44:38.891Z,7.82
2023-02-07T19:47:05.315Z,8.25
2023-02-07T19:49:31.713Z,8.15
2023-02-07T19:51:59.388Z,8.70
2023-02-07T19:54:25.762Z,8.15
2023-02-07T19:56:52.102Z,7.88
2023-02-07T19:59:18.880Z,9.45
2023-02-07T20:01:45.424Z,8.40
2023-02-07T20:04:12.064Z,9.18
2023-02-07T20:06:38.803Z,9.10
2023-02-07T20:09:06.600Z,8.40
2023-02-07T20:11:33.335Z,8.02
2023-02-07T20:14:02.900Z,9.20
2023-02-07T20:16:35.861Z,9.40
2023-02-07T20:19:05.228Z,10.02
2023-02-07T20:21:33.491Z,9.10
2023-02-07T20:24:00.225Z,8.23
2023-02-07T20:26:30.448Z,8.85
2023-02-07T20:29:01.902Z,9.00
2023-02-07T20:31:30.782Z,8.82
2023-02-07T20:33:57.732Z,8.98
2023-02-07T20:36:25.156Z,8.82
2023-02-07T20:38:52.046Z,9.23
2023-02-07T20:41:35.958Z,8.68
2023-02-07T20:44:05.371Z,8.38
2023-02-07T20:46:34.133Z,8.25
2023-02-07T20:49:03.142Z,8.80
2023-02-07T20:51:30.092Z,8.70
2023-02-07T20:53:58.823Z,8.30
2023-02-07T20:56:26.275Z,8.82
2023-02-07T20:58:54.472Z,9.13
2023-02-07T21:01:23.096Z,8.05
2023-02-07T21:03:51.013Z,8.80
2023-02-07T21:06:17.844Z,8.40
2023-02-07T21:08:44.380Z,8.13
2023-02-07T21:11:10.963Z,8.63
2023-02-07T21:13:38.287Z,8.40
2023-02-07T21:16:06.369Z,8.05
2023-02-07T21:18:33.948Z,8.98
2023-02-07T21:21:00.586Z,9.25
2023-02-07T21:23:27.168Z,8.57
2023-02-07T21:25:53.888Z,8.98
2023-02-07T21:28:20.510Z,8.70
2023-02-07T21:30:47.020Z,8.25
2023-02-07T21:33:13.690Z,8.93
2023-02-07T21:35:40.058Z,8.77
2023-02-07T21:38:06.945Z,8.57
2023-02-07T21:40:33.373Z,8.35
2023-02-07T21:42:59.716Z,9.65
2023-02-07T21:45:26.154Z,11.60
2023-02-07T21:47:52.562Z,9.65
2023-02-07T21:50:18.919Z,9.95
2023-02-07T21:52:45.350Z,8.73
2023-02-07T21:55:11.805Z,7.97
2023-02-07T21:57:38.204Z,9.07
2023-02-07T22:00:08.012Z,8.73
2023-02-07T22:02:35.106Z,9.27
2023-02-07T22:05:01.630Z,9.93
2023-02-07T22:07:28.044Z,8.27
2023-02-07T22:09:54.852Z,8.45
2023-02-07T22:12:21.397Z,9.18
2023-02-07T22:14:47.897Z,7.60
2023-02-07T22:17:23.610Z,7.97
2023-02-07T22:19:51.500Z,7.57
2023-02-07T22:22:18.606Z,7.20
2023-02-07T22:24:45.444Z,8.30
2023-02-07T22:27:12.381Z,8.10
2023-02-07T22:29:41.263Z,8.57
2023-02-07T22:32:09.983Z,8.77
2023-02-07T22:34:37.462Z,8.48
2023-02-07T22:37:03.974Z,9.05
2023-02-07T22:39:30.351Z,7.90
2023-02-07T22:41:57.097Z,7.90
2023-02-07T22:44:24.862Z,7.63
2023-02-07T22:46:51.248Z,8.98
2023-02-07T22:49:17.576Z,8.75
2023-02-07T22:51:46.043Z,8.88
2023-02-07T22:54:19.265Z,8.90
2023-02-07T22:56:46.179Z,8.10
2023-02-07T22:59:12.847Z,7.65
2023-02-07T23:01:40.829Z,7.03
2023-02-07T23:04:11.943Z,6.53
2023-02-07T23:06:38.442Z,6.05
2023-02-07T23:09:05.351Z,5.80
2023-02-07T23:11:31.978Z,5.85
2023-02-07T23:13:58.417Z,5.63
2023-02-07T23:16:26.326Z,6.55
2023-02-07T23:18:57.561Z,6.35
2023-02-07T23:21:26.054Z,6.18
2023-02-07T23:23:52.904Z,7.30
2023-02-07T23:26:22.257Z,6.57
2023-02-07T23:28:49.106Z,5.50
2023-02-07T23:31:18.259Z,6.40
2023-02-07T23:33:44.686Z,5.97
2023-02-07T23:36:12.209Z,6.85
2023-02-07T23:38:39.028Z,7.78
2023-02-07T23:41:13.376Z,7.85
2023-02-07T23:43:42.757Z,7.00
2023-02-07T23:46:09.492Z,7.38
2023-02-07T23:48:38.632Z,7.00
2023-02-07T23:51:07.814Z,6.90
2023-02-07T23:53:37.432Z,7.10
2023-02-07T23:56:12.418Z,7.10
2023-02-07T23:58:49.864Z,6.07
